sensor_id;sensor_type;location;lat;lon;timestamp;pressure;altitude;pressure_sealevel;temperature;humidity
45040;BME280;30778;53.574;7.770;2024-01-16T00:01:07;100317.31;;;-3.07;58.69
45040;BME280;30778;53.574;7.770;2024-01-16T00:03:34;100312.91;;;-3.23;60.54
45040;BME280;30778;53.574;7.770;2024-01-16T00:06:00;100309.34;;;-3.43;61.47
45040;BME280;30778;53.574;7.770;2024-01-16T00:08:26;100313.75;;;-3.27;61.48
45040;BME280;30778;53.574;7.770;2024-01-16T00:10:51;100320.69;;;-3.08;61.30
45040;BME280;30778;53.574;7.770;2024-01-16T00:13:17;100315.50;;;-3.20;61.37
45040;BME280;30778;53.574;7.770;2024-01-16T00:15:43;100306.41;;;-2.79;60.30
45040;BME280;30778;53.574;7.770;2024-01-16T00:18:08;100315.00;;;-2.68;60.16
45040;BME280;30778;53.574;7.770;2024-01-16T00:20:34;100325.28;;;-2.57;60.18
45040;BME280;30778;53.574;7.770;2024-01-16T00:23:00;100318.47;;;-2.54;60.14
45040;BME280;30778;53.574;7.770;2024-01-16T00:25:25;100344.94;;;-2.47;60.16
45040;BME280;30778;53.574;7.770;2024-01-16T00:27:51;100343.28;;;-2.42;60.16
45040;BME280;30778;53.574;7.770;2024-01-16T00:30:17;100359.28;;;-2.80;60.62
45040;BME280;30778;53.574;7.770;2024-01-16T00:32:42;100387.66;;;-2.40;60.62
45040;BME280;30778;53.574;7.770;2024-01-16T00:35:08;100391.69;;;-2.74;61.21
45040;BME280;30778;53.574;7.770;2024-01-16T00:37:36;100405.38;;;-2.71;61.72
45040;BME280;30778;53.574;7.770;2024-01-16T00:40:03;100387.69;;;-3.46;62.08
45040;BME280;30778;53.574;7.770;2024-01-16T00:42:30;100349.56;;;-3.21;61.64
45040;BME280;30778;53.574;7.770;2024-01-16T00:44:57;100359.09;;;-3.01;60.71
45040;BME280;30778;53.574;7.770;2024-01-16T00:47:23;100348.03;;;-3.00;60.25
45040;BME280;30778;53.574;7.770;2024-01-16T00:49:48;100339.53;;;-2.96;60.21
45040;BME280;30778;53.574;7.770;2024-01-16T00:52:13;100330.22;;;-2.88;59.43
45040;BME280;30778;53.574;7.770;2024-01-16T00:54:39;100337.84;;;-2.93;58.81
45040;BME280;30778;53.574;7.770;2024-01-16T00:57:05;100346.06;;;-3.32;59.21
45040;BME280;30778;53.574;7.770;2024-01-16T00:59:30;100344.25;;;-3.47;59.27
45040;BME280;30778;53.574;7.770;2024-01-16T01:01:57;100364.88;;;-3.24;58.54
45040;BME280;30778;53.574;7.770;2024-01-16T01:04:22;100386.53;;;-3.75;59.72
45040;BME280;30778;53.574;7.770;2024-01-16T01:06:47;100409.06;;;-3.37;59.51
45040;BME280;30778;53.574;7.770;2024-01-16T01:09:13;100409.00;;;-3.43;60.90
45040;BME280;30778;53.574;7.770;2024-01-16T01:11:39;100418.94;;;-3.71;62.34
45040;BME280;30778;53.574;7.770;2024-01-16T01:14:04;100409.25;;;-3.97;62.89
45040;BME280;30778;53.574;7.770;2024-01-16T01:16:31;100389.53;;;-3.31;61.88
45040;BME280;30778;53.574;7.770;2024-01-16T01:18:56;100386.22;;;-3.20;60.83
45040;BME280;30778;53.574;7.770;2024-01-16T01:21:21;100390.31;;;-3.39;60.08
45040;BME280;30778;53.574;7.770;2024-01-16T01:23:47;100382.63;;;-3.39;60.51
45040;BME280;30778;53.574;7.770;2024-01-16T01:26:12;100394.44;;;-3.51;60.61
45040;BME280;30778;53.574;7.770;2024-01-16T01:28:40;100387.22;;;-3.05;59.39
45040;BME280;30778;53.574;7.770;2024-01-16T01:31:09;100380.13;;;-3.35;59.37
45040;BME280;30778;53.574;7.770;2024-01-16T01:33:35;100376.75;;;-3.31;58.70
45040;BME280;30778;53.574;7.770;2024-01-16T01:36:00;100371.69;;;-3.23;56.52
45040;BME280;30778;53.574;7.770;2024-01-16T01:38:26;100363.47;;;-2.85;55.25
45040;BME280;30778;53.574;7.770;2024-01-16T01:40:51;100375.38;;;-2.90;54.99
45040;BME280;30778;53.574;7.770;2024-01-16T01:43:21;100369.53;;;-2.75;54.22
45040;BME280;30778;53.574;7.770;2024-01-16T01:46:09;100367.75;;;-2.84;54.23
45040;BME280;30778;53.574;7.770;2024-01-16T01:48:37;100373.75;;;-2.82;54.51
45040;BME280;30778;53.574;7.770;2024-01-16T01:51:03;100372.00;;;-2.89;54.66
45040;BME280;30778;53.574;7.770;2024-01-16T01:53:31;100383.13;;;-2.81;54.83
45040;BME280;30778;53.574;7.770;2024-01-16T01:55:59;100387.50;;;-2.63;54.26
45040;BME280;30778;53.574;7.770;2024-01-16T01:58:25;100389.19;;;-2.68;53.90
45040;BME280;30778;53.574;7.770;2024-01-16T02:00:50;100399.38;;;-2.76;54.21
45040;BME280;30778;53.574;7.770;2024-01-16T02:03:16;100404.09;;;-3.22;55.27
45040;BME280;30778;53.574;7.770;2024-01-16T02:05:43;100408.59;;;-2.92;54.67
45040;BME280;30778;53.574;7.770;2024-01-16T02:08:09;100404.97;;;-3.20;55.62
45040;BME280;30778;53.574;7.770;2024-01-16T02:10:37;100406.78;;;-3.07;54.92
45040;BME280;30778;53.574;7.770;2024-01-16T02:13:04;100411.06;;;-3.06;55.38
45040;BME280;30778;53.574;7.770;2024-01-16T02:15:30;100410.25;;;-3.01;55.52
45040;BME280;30778;53.574;7.770;2024-01-16T02:17:57;100411.06;;;-3.04;55.71
45040;BME280;30778;53.574;7.770;2024-01-16T02:20:22;100416.06;;;-3.19;56.14
45040;BME280;30778;53.574;7.770;2024-01-16T02:22:50;100404.66;;;-3.51;57.14
45040;BME280;30778;53.574;7.770;2024-01-16T02:25:19;100407.25;;;-3.49;57.17
45040;BME280;30778;53.574;7.770;2024-01-16T02:27:45;100414.09;;;-3.47;56.88
45040;BME280;30778;53.574;7.770;2024-01-16T02:30:11;100416.66;;;-3.45;57.06
45040;BME280;30778;53.574;7.770;2024-01-16T02:32:36;100409.59;;;-3.66;57.36
45040;BME280;30778;53.574;7.770;2024-01-16T02:35:04;100415.69;;;-3.55;57.08
45040;BME280;30778;53.574;7.770;2024-01-16T02:37:30;100422.44;;;-3.63;57.40
45040;BME280;30778;53.574;7.770;2024-01-16T02:39:55;100419.00;;;-3.65;57.16
45040;BME280;30778;53.574;7.770;2024-01-16T02:42:21;100418.19;;;-3.59;57.37
45040;BME280;30778;53.574;7.770;2024-01-16T02:44:46;100413.63;;;-3.86;57.83
45040;BME280;30778;53.574;7.770;2024-01-16T02:47:12;100417.16;;;-3.77;57.08
45040;BME280;30778;53.574;7.770;2024-01-16T02:49:37;100410.31;;;-3.79;57.29
45040;BME280;30778;53.574;7.770;2024-01-16T02:52:05;100416.44;;;-3.63;56.25
45040;BME280;30778;53.574;7.770;2024-01-16T02:54:30;100426.63;;;-3.67;56.02
45040;BME280;30778;53.574;7.770;2024-01-16T02:56:56;100416.31;;;-3.76;55.39
45040;BME280;30778;53.574;7.770;2024-01-16T02:59:21;100423.09;;;-3.78;55.79
45040;BME280;30778;53.574;7.770;2024-01-16T03:01:46;100417.06;;;-3.84;55.99
45040;BME280;30778;53.574;7.770;2024-01-16T03:04:12;100418.66;;;-3.93;56.31
45040;BME280;30778;53.574;7.770;2024-01-16T03:06:37;100414.34;;;-3.97;56.51
45040;BME280;30778;53.574;7.770;2024-01-16T03:09:03;100415.22;;;-3.95;56.66
45040;BME280;30778;53.574;7.770;2024-01-16T03:11:28;100422.31;;;-3.72;56.51
45040;BME280;30778;53.574;7.770;2024-01-16T03:13:54;100433.53;;;-3.59;56.46
45040;BME280;30778;53.574;7.770;2024-01-16T03:16:20;100463.44;;;-3.51;56.09
45040;BME280;30778;53.574;7.770;2024-01-16T03:18:45;100473.56;;;-3.57;55.92
45040;BME280;30778;53.574;7.770;2024-01-16T03:21:13;100471.47;;;-3.90;57.49
45040;BME280;30778;53.574;7.770;2024-01-16T03:23:38;100472.09;;;-3.38;57.49
45040;BME280;30778;53.574;7.770;2024-01-16T03:26:04;100457.97;;;-3.02;57.44
45040;BME280;30778;53.574;7.770;2024-01-16T03:28:29;100456.06;;;-3.21;60.41
45040;BME280;30778;53.574;7.770;2024-01-16T03:30:55;100440.25;;;-2.79;59.35
45040;BME280;30778;53.574;7.770;2024-01-16T03:33:20;100433.41;;;-2.85;60.14
45040;BME280;30778;53.574;7.770;2024-01-16T03:35:46;100438.50;;;-2.89;60.00
45040;BME280;30778;53.574;7.770;2024-01-16T03:38:13;100435.22;;;-2.70;59.73
45040;BME280;30778;53.574;7.770;2024-01-16T03:40:38;100435.06;;;-2.88;60.48
45040;BME280;30778;53.574;7.770;2024-01-16T03:43:04;100435.97;;;-2.81;60.24
45040;BME280;30778;53.574;7.770;2024-01-16T03:45:31;100435.25;;;-2.67;59.79
45040;BME280;30778;53.574;7.770;2024-01-16T03:47:57;100420.81;;;-2.54;59.16
45040;BME280;30778;53.574;7.770;2024-01-16T03:50:22;100424.97;;;-2.73;59.54
45040;BME280;30778;53.574;7.770;2024-01-16T03:52:48;100424.00;;;-2.89;60.06
45040;BME280;30778;53.574;7.770;2024-01-16T03:55:13;100413.94;;;-2.63;59.41
45040;BME280;30778;53.574;7.770;2024-01-16T03:57:42;100411.97;;;-3.00;60.26
45040;BME280;30778;53.574;7.770;2024-01-16T04:00:08;100412.00;;;-2.94;59.48
45040;BME280;30778;53.574;7.770;2024-01-16T04:02:38;100409.50;;;-2.88;59.25
45040;BME280;30778;53.574;7.770;2024-01-16T04:05:04;100415.44;;;-2.92;58.53
45040;BME280;30778;53.574;7.770;2024-01-16T04:07:33;100406.63;;;-3.27;59.73
45040;BME280;30778;53.574;7.770;2024-01-16T04:09:59;100415.91;;;-3.33;60.52
45040;BME280;30778;53.574;7.770;2024-01-16T04:12:25;100413.59;;;-3.09;60.26
45040;BME280;30778;53.574;7.770;2024-01-16T04:14:50;100423.06;;;-2.94;60.14
45040;BME280;30778;53.574;7.770;2024-01-16T04:17:16;100431.56;;;-3.02;59.85
45040;BME280;30778;53.574;7.770;2024-01-16T04:19:41;100434.25;;;-2.84;59.27
45040;BME280;30778;53.574;7.770;2024-01-16T04:22:07;100429.97;;;-2.87;58.57
45040;BME280;30778;53.574;7.770;2024-01-16T04:24:32;100424.66;;;-3.08;59.07
45040;BME280;30778;53.574;7.770;2024-01-16T04:26:58;100425.47;;;-3.12;59.07
45040;BME280;30778;53.574;7.770;2024-01-16T04:29:23;100423.63;;;-3.29;59.77
45040;BME280;30778;53.574;7.770;2024-01-16T04:31:49;100437.31;;;-3.23;59.36
45040;BME280;30778;53.574;7.770;2024-01-16T04:34:14;100424.00;;;-2.86;59.21
45040;BME280;30778;53.574;7.770;2024-01-16T04:36:40;100421.88;;;-3.33;60.63
45040;BME280;30778;53.574;7.770;2024-01-16T04:39:05;100416.22;;;-3.02;59.39
45040;BME280;30778;53.574;7.770;2024-01-16T04:41:30;100409.38;;;-3.03;59.34
45040;BME280;30778;53.574;7.770;2024-01-16T04:43:56;100400.25;;;-3.67;61.52
45040;BME280;30778;53.574;7.770;2024-01-16T04:46:21;100410.81;;;-3.33;60.98
45040;BME280;30778;53.574;7.770;2024-01-16T04:48:47;100411.47;;;-3.53;61.64
45040;BME280;30778;53.574;7.770;2024-01-16T04:51:12;100410.66;;;-3.49;62.14
45040;BME280;30778;53.574;7.770;2024-01-16T04:53:38;100411.59;;;-3.40;61.59
45040;BME280;30778;53.574;7.770;2024-01-16T04:56:04;100415.78;;;-3.46;61.40
45040;BME280;30778;53.574;7.770;2024-01-16T04:58:29;100404.53;;;-3.64;61.45
45040;BME280;30778;53.574;7.770;2024-01-16T05:00:55;100408.81;;;-3.59;61.51
45040;BME280;30778;53.574;7.770;2024-01-16T05:03:20;100400.16;;;-3.76;62.16
45040;BME280;30778;53.574;7.770;2024-01-16T05:05:46;100405.91;;;-3.94;62.54
45040;BME280;30778;53.574;7.770;2024-01-16T05:08:12;100412.97;;;-3.72;62.31
45040;BME280;30778;53.574;7.770;2024-01-16T05:10:37;100413.72;;;-3.80;62.88
45040;BME280;30778;53.574;7.770;2024-01-16T05:13:03;100427.97;;;-3.98;63.35
45040;BME280;30778;53.574;7.770;2024-01-16T05:15:28;100422.56;;;-3.51;62.34
45040;BME280;30778;53.574;7.770;2024-01-16T05:17:54;100418.63;;;-3.96;63.66
45040;BME280;30778;53.574;7.770;2024-01-16T05:20:19;100418.94;;;-3.68;62.59
45040;BME280;30778;53.574;7.770;2024-01-16T05:22:45;100421.72;;;-3.48;62.52
45040;BME280;30778;53.574;7.770;2024-01-16T05:25:11;100415.94;;;-3.30;62.88
45040;BME280;30778;53.574;7.770;2024-01-16T05:27:36;100406.06;;;-3.77;63.43
45040;BME280;30778;53.574;7.770;2024-01-16T05:30:02;100402.66;;;-3.79;63.53
45040;BME280;30778;53.574;7.770;2024-01-16T05:32:27;100405.06;;;-3.92;64.16
45040;BME280;30778;53.574;7.770;2024-01-16T05:34:53;100402.41;;;-3.21;62.76
45040;BME280;30778;53.574;7.770;2024-01-16T05:37:21;100404.63;;;-3.52;63.03
45040;BME280;30778;53.574;7.770;2024-01-16T05:39:46;100401.03;;;-3.71;63.29
45040;BME280;30778;53.574;7.770;2024-01-16T05:42:12;100398.94;;;-3.28;62.66
45040;BME280;30778;53.574;7.770;2024-01-16T05:44:37;100406.44;;;-3.43;63.04
45040;BME280;30778;53.574;7.770;2024-01-16T05:47:04;100401.25;;;-3.53;63.22
45040;BME280;30778;53.574;7.770;2024-01-16T05:49:29;100392.06;;;-3.32;62.22
45040;BME280;30778;53.574;7.770;2024-01-16T05:51:55;100387.03;;;-3.23;61.94
45040;BME280;30778;53.574;7.770;2024-01-16T05:54:20;100377.78;;;-3.10;61.59
45040;BME280;30778;53.574;7.770;2024-01-16T05:56:46;100377.69;;;-3.22;61.38
45040;BME280;30778;53.574;7.770;2024-01-16T05:59:11;100383.28;;;-3.59;62.44
45040;BME280;30778;53.574;7.770;2024-01-16T06:01:37;100387.81;;;-3.33;61.66
45040;BME280;30778;53.574;7.770;2024-01-16T06:04:03;100382.78;;;-3.24;61.49
45040;BME280;30778;53.574;7.770;2024-01-16T06:06:29;100380.16;;;-3.33;61.77
45040;BME280;30778;53.574;7.770;2024-01-16T06:08:54;100380.09;;;-3.36;60.64
45040;BME280;30778;53.574;7.770;2024-01-16T06:11:29;100373.09;;;-3.54;61.28
45040;BME280;30778;53.574;7.770;2024-01-16T06:13:55;100377.75;;;-3.12;60.64
45040;BME280;30778;53.574;7.770;2024-01-16T06:16:20;100382.69;;;-3.35;60.74
45040;BME280;30778;53.574;7.770;2024-01-16T06:18:46;100383.78;;;-3.07;60.07
45040;BME280;30778;53.574;7.770;2024-01-16T06:21:12;100386.31;;;-3.08;59.22
45040;BME280;30778;53.574;7.770;2024-01-16T06:23:37;100379.56;;;-3.01;58.86
45040;BME280;30778;53.574;7.770;2024-01-16T06:26:03;100381.28;;;-2.99;58.93
45040;BME280;30778;53.574;7.770;2024-01-16T06:28:28;100387.22;;;-3.01;59.08
45040;BME280;30778;53.574;7.770;2024-01-16T06:30:58;100391.41;;;-3.10;59.28
45040;BME280;30778;53.574;7.770;2024-01-16T06:33:23;100390.47;;;-3.21;59.18
45040;BME280;30778;53.574;7.770;2024-01-16T06:35:49;100395.72;;;-3.06;59.13
45040;BME280;30778;53.574;7.770;2024-01-16T06:38:14;100397.38;;;-3.11;58.52
45040;BME280;30778;53.574;7.770;2024-01-16T06:40:40;100404.81;;;-3.37;59.42
45040;BME280;30778;53.574;7.770;2024-01-16T06:43:08;100398.22;;;-3.12;58.65
45040;BME280;30778;53.574;7.770;2024-01-16T06:45:35;100396.38;;;-3.25;59.04
45040;BME280;30778;53.574;7.770;2024-01-16T06:48:01;100394.06;;;-3.00;58.14
45040;BME280;30778;53.574;7.770;2024-01-16T06:50:26;100400.50;;;-3.42;59.18
45040;BME280;30778;53.574;7.770;2024-01-16T06:52:52;100397.16;;;-3.35;59.01
45040;BME280;30778;53.574;7.770;2024-01-16T06:55:17;100396.50;;;-3.13;58.26
45040;BME280;30778;53.574;7.770;2024-01-16T06:57:43;100396.69;;;-2.93;57.78
45040;BME280;30778;53.574;7.770;2024-01-16T07:00:08;100394.06;;;-3.00;57.88
45040;BME280;30778;53.574;7.770;2024-01-16T07:02:34;100401.34;;;-3.42;59.24
45040;BME280;30778;53.574;7.770;2024-01-16T07:05:00;100403.31;;;-3.15;58.55
45040;BME280;30778;53.574;7.770;2024-01-16T07:07:26;100412.50;;;-3.35;58.74
45040;BME280;30778;53.574;7.770;2024-01-16T07:09:52;100412.22;;;-3.61;60.23
45040;BME280;30778;53.574;7.770;2024-01-16T07:12:18;100422.50;;;-3.55;60.24
45040;BME280;30778;53.574;7.770;2024-01-16T07:14:44;100415.63;;;-3.61;60.83
45040;BME280;30778;53.574;7.770;2024-01-16T07:17:09;100424.63;;;-3.92;62.54
45040;BME280;30778;53.574;7.770;2024-01-16T07:19:35;100415.59;;;-3.64;61.63
45040;BME280;30778;53.574;7.770;2024-01-16T07:22:01;100415.75;;;-3.52;61.49
45040;BME280;30778;53.574;7.770;2024-01-16T07:24:28;100399.63;;;-3.44;61.25
45040;BME280;30778;53.574;7.770;2024-01-16T07:26:53;100403.03;;;-3.44;61.79
45040;BME280;30778;53.574;7.770;2024-01-16T07:29:19;100414.47;;;-3.86;63.18
45040;BME280;30778;53.574;7.770;2024-01-16T07:31:46;100415.72;;;-3.53;62.60
45040;BME280;30778;53.574;7.770;2024-01-16T07:34:11;100415.75;;;-3.52;62.88
45040;BME280;30778;53.574;7.770;2024-01-16T07:36:37;100407.94;;;-3.61;62.63
45040;BME280;30778;53.574;7.770;2024-01-16T07:39:03;100416.75;;;-3.36;61.89
45040;BME280;30778;53.574;7.770;2024-01-16T07:41:29;100424.13;;;-3.65;62.64
45040;BME280;30778;53.574;7.770;2024-01-16T07:43:54;100419.59;;;-3.07;61.86
45040;BME280;30778;53.574;7.770;2024-01-16T07:46:20;100426.19;;;-3.29;62.64
45040;BME280;30778;53.574;7.770;2024-01-16T07:48:45;100414.63;;;-2.88;60.85
45040;BME280;30778;53.574;7.770;2024-01-16T07:51:11;100417.91;;;-3.05;61.41
45040;BME280;30778;53.574;7.770;2024-01-16T07:53:36;100425.63;;;-2.97;60.91
45040;BME280;30778;53.574;7.770;2024-01-16T07:56:02;100438.03;;;-3.37;61.67
45040;BME280;30778;53.574;7.770;2024-01-16T07:58:28;100430.72;;;-2.98;61.38
45040;BME280;30778;53.574;7.770;2024-01-16T08:00:53;100434.59;;;-3.39;62.44
45040;BME280;30778;53.574;7.770;2024-01-16T08:03:20;100428.13;;;-3.01;61.31
45040;BME280;30778;53.574;7.770;2024-01-16T08:05:46;100428.53;;;-2.52;60.01
45040;BME280;30778;53.574;7.770;2024-01-16T08:08:11;100438.50;;;-2.86;60.53
45040;BME280;30778;53.574;7.770;2024-01-16T08:10:37;100434.28;;;-2.79;60.19
45040;BME280;30778;53.574;7.770;2024-01-16T08:13:03;100444.59;;;-2.67;60.08
45040;BME280;30778;53.574;7.770;2024-01-16T08:15:28;100439.16;;;-3.09;61.39
45040;BME280;30778;53.574;7.770;2024-01-16T08:17:54;100444.56;;;-2.75;60.58
45040;BME280;30778;53.574;7.770;2024-01-16T08:20:19;100449.88;;;-2.49;59.45
45040;BME280;30778;53.574;7.770;2024-01-16T08:22:45;100452.44;;;-2.47;59.25
45040;BME280;30778;53.574;7.770;2024-01-16T08:25:10;100457.06;;;-3.06;60.43
45040;BME280;30778;53.574;7.770;2024-01-16T08:27:36;100462.53;;;-2.69;59.97
45040;BME280;30778;53.574;7.770;2024-01-16T08:30:06;100457.13;;;-3.01;60.28
45040;BME280;30778;53.574;7.770;2024-01-16T08:32:32;100463.16;;;-2.96;60.39
45040;BME280;30778;53.574;7.770;2024-01-16T08:34:58;100456.53;;;-2.72;59.41
45040;BME280;30778;53.574;7.770;2024-01-16T08:37:23;100464.34;;;-2.52;59.91
45040;BME280;30778;53.574;7.770;2024-01-16T08:39:50;100470.16;;;-2.75;60.00
45040;BME280;30778;53.574;7.770;2024-01-16T08:42:16;100469.38;;;-2.65;60.04
45040;BME280;30778;53.574;7.770;2024-01-16T08:44:43;100476.53;;;-2.22;58.69
45040;BME280;30778;53.574;7.770;2024-01-16T08:47:08;100473.25;;;-3.05;60.58
45040;BME280;30778;53.574;7.770;2024-01-16T08:49:35;100476.78;;;-2.95;60.20
45040;BME280;30778;53.574;7.770;2024-01-16T08:52:01;100474.38;;;-2.77;59.95
45040;BME280;30778;53.574;7.770;2024-01-16T08:54:28;100472.84;;;-2.59;59.84
45040;BME280;30778;53.574;7.770;2024-01-16T08:56:53;100474.50;;;-2.65;59.99
45040;BME280;30778;53.574;7.770;2024-01-16T08:59:19;100480.50;;;-2.61;59.97
45040;BME280;30778;53.574;7.770;2024-01-16T09:01:44;100468.38;;;-2.80;60.04
45040;BME280;30778;53.574;7.770;2024-01-16T09:04:10;100476.38;;;-3.35;61.09
45040;BME280;30778;53.574;7.770;2024-01-16T09:06:37;100477.94;;;-2.59;59.72
45040;BME280;30778;53.574;7.770;2024-01-16T09:09:03;100487.31;;;-2.65;60.19
45040;BME280;30778;53.574;7.770;2024-01-16T09:11:30;100489.75;;;-2.77;60.08
45040;BME280;30778;53.574;7.770;2024-01-16T09:13:57;100491.63;;;-2.57;60.66
45040;BME280;30778;53.574;7.770;2024-01-16T09:16:23;100489.03;;;-2.56;59.97
45040;BME280;30778;53.574;7.770;2024-01-16T09:18:49;100484.94;;;-2.40;60.05
45040;BME280;30778;53.574;7.770;2024-01-16T09:21:16;100469.66;;;-2.25;59.66
45040;BME280;30778;53.574;7.770;2024-01-16T09:23:41;100475.50;;;-2.43;59.79
45040;BME280;30778;53.574;7.770;2024-01-16T09:26:07;100477.63;;;-2.96;60.99
45040;BME280;30778;53.574;7.770;2024-01-16T09:28:32;100472.59;;;-2.87;60.71
45040;BME280;30778;53.574;7.770;2024-01-16T09:30:58;100484.69;;;-2.68;60.93
45040;BME280;30778;53.574;7.770;2024-01-16T09:33:23;100482.38;;;-2.34;59.34
45040;BME280;30778;53.574;7.770;2024-01-16T09:35:51;100485.13;;;-2.08;58.32
45040;BME280;30778;53.574;7.770;2024-01-16T09:38:16;100481.66;;;-2.17;58.64
45040;BME280;30778;53.574;7.770;2024-01-16T09:40:42;100490.28;;;-2.03;58.01
45040;BME280;30778;53.574;7.770;2024-01-16T09:43:07;100488.16;;;-2.61;58.78
45040;BME280;30778;53.574;7.770;2024-01-16T09:45:39;100486.94;;;-1.87;57.49
45040;BME280;30778;53.574;7.770;2024-01-16T09:48:05;100495.44;;;-1.94;57.38
45040;BME280;30778;53.574;7.770;2024-01-16T09:50:33;100492.56;;;-2.46;58.41
45040;BME280;30778;53.574;7.770;2024-01-16T09:52:58;100488.47;;;-2.19;57.50
45040;BME280;30778;53.574;7.770;2024-01-16T09:55:24;100487.59;;;-2.22;57.77
45040;BME280;30778;53.574;7.770;2024-01-16T09:57:52;100499.97;;;-2.74;59.45
45040;BME280;30778;53.574;7.770;2024-01-16T10:00:19;100509.38;;;-2.76;60.32
45040;BME280;30778;53.574;7.770;2024-01-16T10:02:44;100507.97;;;-2.38;59.93
45040;BME280;30778;53.574;7.770;2024-01-16T10:05:11;100522.66;;;-2.13;59.20
45040;BME280;30778;53.574;7.770;2024-01-16T10:07:41;100516.06;;;-1.72;57.78
45040;BME280;30778;53.574;7.770;2024-01-16T10:10:10;100518.59;;;-1.78;57.49
45040;BME280;30778;53.574;7.770;2024-01-16T10:12:37;100522.94;;;-1.68;57.48
45040;BME280;30778;53.574;7.770;2024-01-16T10:15:06;100509.94;;;-1.99;58.29
45040;BME280;30778;53.574;7.770;2024-01-16T10:17:40;100506.31;;;-2.33;58.58
45040;BME280;30778;53.574;7.770;2024-01-16T10:20:09;100508.38;;;-1.75;57.30
45040;BME280;30778;53.574;7.770;2024-01-16T10:22:39;100503.19;;;-1.80;57.69
45040;BME280;30778;53.574;7.770;2024-01-16T10:25:12;100511.78;;;-1.76;56.75
45040;BME280;30778;53.574;7.770;2024-01-16T10:27:42;100506.59;;;-1.87;56.95
45040;BME280;30778;53.574;7.770;2024-01-16T10:30:08;100504.13;;;-1.67;56.84
45040;BME280;30778;53.574;7.770;2024-01-16T10:32:40;100497.41;;;-1.44;56.32
45040;BME280;30778;53.574;7.770;2024-01-16T10:35:13;100493.28;;;-0.97;54.89
45040;BME280;30778;53.574;7.770;2024-01-16T10:37:54;100484.63;;;-1.33;55.25
45040;BME280;30778;53.574;7.770;2024-01-16T10:40:24;100481.81;;;-1.87;57.15
45040;BME280;30778;53.574;7.770;2024-01-16T10:42:59;100484.72;;;-1.01;54.53
45040;BME280;30778;53.574;7.770;2024-01-16T10:45:25;100488.03;;;-1.37;56.03
45040;BME280;30778;53.574;7.770;2024-01-16T10:50:28;100482.06;;;0.01;53.15
45040;BME280;30778;53.574;7.770;2024-01-16T10:52:54;100489.78;;;0.12;51.78
45040;BME280;30778;53.574;7.770;2024-01-16T10:55:22;100495.84;;;-0.25;52.46
45040;BME280;30778;53.574;7.770;2024-01-16T10:57:51;100492.44;;;-0.36;52.22
45040;BME280;30778;53.574;7.770;2024-01-16T11:00:21;100495.00;;;-0.74;53.14
45040;BME280;30778;53.574;7.770;2024-01-16T11:03:03;100499.16;;;-1.30;55.31
45040;BME280;30778;53.574;7.770;2024-01-16T11:05:31;100500.97;;;-0.82;54.11
45040;BME280;30778;53.574;7.770;2024-01-16T11:07:59;100489.84;;;-0.73;54.80
45040;BME280;30778;53.574;7.770;2024-01-16T11:10:27;100492.25;;;-1.38;55.15
45040;BME280;30778;53.574;7.770;2024-01-16T11:12:52;100502.56;;;-1.22;55.35
45040;BME280;30778;53.574;7.770;2024-01-16T11:15:19;100500.13;;;-0.84;54.87
45040;BME280;30778;53.574;7.770;2024-01-16T11:17:45;100495.69;;;-1.40;56.49
45040;BME280;30778;53.574;7.770;2024-01-16T11:20:12;100503.47;;;-1.06;55.84
45040;BME280;30778;53.574;7.770;2024-01-16T11:22:41;100498.09;;;-1.82;57.59
45040;BME280;30778;53.574;7.770;2024-01-16T11:25:10;100496.50;;;-1.60;57.49
45040;BME280;30778;53.574;7.770;2024-01-16T11:27:37;100498.28;;;-1.29;56.02
45040;BME280;30778;53.574;7.770;2024-01-16T11:30:05;100493.91;;;-1.64;57.26
45040;BME280;30778;53.574;7.770;2024-01-16T11:32:39;100494.78;;;-1.51;57.38
45040;BME280;30778;53.574;7.770;2024-01-16T11:35:10;100499.25;;;-1.03;56.17
45040;BME280;30778;53.574;7.770;2024-01-16T11:37:41;100495.72;;;-1.31;56.42
45040;BME280;30778;53.574;7.770;2024-01-16T11:42:44;100495.81;;;-1.05;56.27
45040;BME280;30778;53.574;7.770;2024-01-16T11:48:15;100485.34;;;-1.63;57.44
45040;BME280;30778;53.574;7.770;2024-01-16T11:50:41;100483.63;;;-1.67;57.84
45040;BME280;30778;53.574;7.770;2024-01-16T11:53:07;100486.03;;;-1.96;58.17
45040;BME280;30778;53.574;7.770;2024-01-16T11:55:43;100486.44;;;-2.64;59.92
45040;BME280;30778;53.574;7.770;2024-01-16T12:01:05;100482.53;;;-2.12;59.27
45040;BME280;30778;53.574;7.770;2024-01-16T12:03:30;100486.81;;;-2.11;60.49
45040;BME280;30778;53.574;7.770;2024-01-16T12:05:57;100492.78;;;-2.09;60.39
45040;BME280;30778;53.574;7.770;2024-01-16T12:08:23;100490.19;;;-2.14;60.85
45040;BME280;30778;53.574;7.770;2024-01-16T12:10:49;100491.16;;;-1.98;60.47
45040;BME280;30778;53.574;7.770;2024-01-16T12:13:15;100491.88;;;-2.21;60.84
45040;BME280;30778;53.574;7.770;2024-01-16T12:15:42;100491.16;;;-1.98;60.38
45040;BME280;30778;53.574;7.770;2024-01-16T12:18:08;100488.78;;;-1.61;59.50
45040;BME280;30778;53.574;7.770;2024-01-16T12:20:35;100488.72;;;-1.80;60.18
45040;BME280;30778;53.574;7.770;2024-01-16T12:23:07;100475.84;;;-1.90;59.81
45040;BME280;30778;53.574;7.770;2024-01-16T12:25:36;100476.88;;;-1.42;59.03
45040;BME280;30778;53.574;7.770;2024-01-16T12:28:06;100472.53;;;-1.63;59.58
45040;BME280;30778;53.574;7.770;2024-01-16T12:30:34;100470.94;;;-1.40;59.23
45040;BME280;30778;53.574;7.770;2024-01-16T12:33:06;100460.59;;;-1.53;59.44
45040;BME280;30778;53.574;7.770;2024-01-16T12:35:36;100465.66;;;-1.72;59.88
45040;BME280;30778;53.574;7.770;2024-01-16T12:38:03;100458.88;;;-1.68;59.34
45040;BME280;30778;53.574;7.770;2024-01-16T12:40:29;100455.53;;;-1.41;59.09
45040;BME280;30778;53.574;7.770;2024-01-16T12:42:55;100458.16;;;-1.12;58.38
45040;BME280;30778;53.574;7.770;2024-01-16T12:45:22;100445.25;;;-1.47;58.40
45040;BME280;30778;53.574;7.770;2024-01-16T12:47:51;100449.56;;;-1.39;58.72
45040;BME280;30778;53.574;7.770;2024-01-16T12:50:28;100446.88;;;-1.77;58.86
45040;BME280;30778;53.574;7.770;2024-01-16T12:53:04;100448.72;;;-1.21;58.15
45040;BME280;30778;53.574;7.770;2024-01-16T12:55:40;100443.41;;;-1.85;59.38
45040;BME280;30778;53.574;7.770;2024-01-16T12:58:32;100441.03;;;-1.25;58.23